Time;durP1;ratioP1;P1;durP2;ratioP2;P2;SDS_P1;SDS_P2;PMS_P1;PMS_P2;Temp;Humidity;BMP_temperature;BMP_pressure;BME280_temperature;BME280_humidity;BME280_pressure;Samples;Min_cycle;Max_cycle;Signal;HPM_P1;HPM_P2
2022/02/27 00:00:00;;;;;;;31.13;17.10;;;;;;;;;;5006919;28;20568;-80
2022/02/27 00:02:25;;;;;;;28.27;16.00;;;;;;;;;;5001690;28;20545;-80
2022/02/27 00:04:51;;;;;;;28.20;15.93;;;;;;;;;;4987107;28;20082;-80
2022/02/27 00:07:17;;;;;;;30.13;15.65;;;;;;;;;;5016549;28;20514;-80
2022/02/27 00:09:43;;;;;;;29.67;15.55;;;;;;;;;;5005630;28;20054;-80
2022/02/27 00:12:09;;;;;;;28.08;14.82;;;;;;;;;;5007571;28;20384;-80
2022/02/27 00:14:34;;;;;;;25.08;13.63;;;;;;;;;;5019845;28;20096;-80
2022/02/27 00:17:00;;;;;;;25.35;14.68;;;;;;;;;;5006336;28;20065;-80
2022/02/27 00:19:26;;;;;;;25.10;14.45;;;;;;;;;;4989492;28;20104;-80
2022/02/27 00:21:51;;;;;;;26.38;15.15;;;;;;;;;;5002154;28;20073;-80
2022/02/27 00:24:17;;;;;;;27.80;16.02;;;;;;;;;;4989569;28;20189;-80
2022/02/27 00:26:43;;;;;;;28.73;15.40;;;;;;;;;;4989455;28;20034;-80
2022/02/27 00:29:09;;;;;;;25.45;13.25;;;;;;;;;;4981177;28;20446;-80
2022/02/27 00:31:35;;;;;;;30.75;15.48;;;;;;;;;;4973335;28;20663;-80
2022/02/27 00:34:01;;;;;;;29.63;15.25;;;;;;;;;;4974122;28;20105;-80
2022/02/27 00:36:26;;;;;;;29.02;14.80;;;;;;;;;;4969956;28;20042;-80
2022/02/27 00:38:52;;;;;;;27.05;14.98;;;;;;;;;;4972606;28;20495;-80
2022/02/27 00:41:18;;;;;;;32.40;16.05;;;;;;;;;;4981058;28;20035;-80
2022/02/27 00:43:44;;;;;;;31.30;14.57;;;;;;;;;;4971819;28;20034;-80
2022/02/27 00:46:10;;;;;;;25.25;13.93;;;;;;;;;;4989648;28;20038;-80
2022/02/27 00:48:36;;;;;;;33.15;15.48;;;;;;;;;;4968966;28;20039;-80
2022/02/27 00:51:02;;;;;;;27.33;14.65;;;;;;;;;;4969875;28;20064;-80
2022/02/27 00:53:28;;;;;;;26.00;13.52;;;;;;;;;;4973324;28;20117;-80
2022/02/27 00:55:54;;;;;;;26.85;13.30;;;;;;;;;;5002718;28;20039;-80
2022/02/27 00:58:20;;;;;;;25.40;14.25;;;;;;;;;;4968878;28;20034;-80
2022/02/27 01:00:45;;;;;;;23.73;13.27;;;;;;;;;;4985461;28;20047;-80
2022/02/27 01:03:11;;;;;;;26.77;13.32;;;;;;;;;;4985144;28;20077;-80
2022/02/27 01:05:37;;;;;;;22.38;13.85;;;;;;;;;;5001125;28;20038;-80
2022/02/27 01:08:03;;;;;;;26.85;13.68;;;;;;;;;;4982549;28;20057;-80
2022/02/27 01:10:28;;;;;;;22.70;12.32;;;;;;;;;;5021393;28;20399;-80
2022/02/27 01:12:54;;;;;;;25.67;13.60;;;;;;;;;;5001457;28;20585;-80
2022/02/27 01:15:20;;;;;;;25.98;13.00;;;;;;;;;;4988467;28;20124;-80
2022/02/27 01:17:46;;;;;;;30.67;13.93;;;;;;;;;;4996005;28;20508;-80
2022/02/27 01:20:11;;;;;;;25.42;12.75;;;;;;;;;;5005628;28;20103;-80
2022/02/27 01:22:37;;;;;;;24.15;12.90;;;;;;;;;;4987968;28;20764;-80
2022/02/27 01:25:04;;;;;;;30.42;15.85;;;;;;;;;;5016380;28;20042;-80
2022/02/27 01:27:30;;;;;;;28.65;15.32;;;;;;;;;;5001983;28;20411;-80
2022/02/27 01:29:57;;;;;;;36.53;16.45;;;;;;;;;;4988353;28;20072;-80
2022/02/27 01:32:22;;;;;;;29.10;14.85;;;;;;;;;;4989689;28;20042;-80
2022/02/27 01:34:48;;;;;;;29.60;13.93;;;;;;;;;;5017030;28;20100;-80
2022/02/27 01:37:15;;;;;;;26.83;14.13;;;;;;;;;;5037970;28;20062;-80
2022/02/27 01:39:41;;;;;;;26.10;13.55;;;;;;;;;;5033364;28;20410;-80
2022/02/27 01:42:13;;;;;;;24.92;13.13;;;;;;;;;;4989170;28;20073;-80
2022/02/27 01:44:40;;;;;;;28.50;12.48;;;;;;;;;;5021044;28;20212;-80
2022/02/27 01:47:08;;;;;;;21.95;12.10;;;;;;;;;;4988213;28;20574;-80
2022/02/27 01:49:34;;;;;;;24.95;12.05;;;;;;;;;;4999287;28;20037;-80
2022/02/27 01:52:00;;;;;;;26.55;12.27;;;;;;;;;;5018959;28;20042;-80
2022/02/27 01:54:26;;;;;;;26.17;11.68;;;;;;;;;;4996926;28;20042;-80
2022/02/27 01:56:52;;;;;;;24.02;11.65;;;;;;;;;;4988339;28;23770;-80
2022/02/27 01:59:17;;;;;;;23.95;11.85;;;;;;;;;;4987331;28;20053;-80
2022/02/27 02:01:43;;;;;;;21.50;11.40;;;;;;;;;;4988093;28;20030;-80
2022/02/27 02:04:09;;;;;;;24.77;11.65;;;;;;;;;;4988980;28;20050;-80
2022/02/27 02:06:35;;;;;;;20.67;11.35;;;;;;;;;;4997800;28;20098;-80
2022/02/27 02:09:02;;;;;;;24.02;11.20;;;;;;;;;;5017825;28;20036;-80
2022/02/27 02:11:28;;;;;;;23.52;11.88;;;;;;;;;;4987525;28;20460;-80
2022/02/27 02:13:54;;;;;;;27.35;11.55;;;;;;;;;;4979275;28;20069;-80
2022/02/27 02:16:19;;;;;;;29.73;11.50;;;;;;;;;;4978176;28;20042;-80
2022/02/27 02:18:45;;;;;;;25.17;10.32;;;;;;;;;;5008330;28;20157;-80
2022/02/27 02:21:11;;;;;;;21.40;10.60;;;;;;;;;;5040451;28;20030;-80
2022/02/27 02:23:36;;;;;;;29.90;11.25;;;;;;;;;;5024092;28;20068;-80
2022/02/27 02:26:03;;;;;;;25.23;10.45;;;;;;;;;;4989769;28;20043;-80
2022/02/27 02:28:29;;;;;;;23.40;11.00;;;;;;;;;;5040498;28;20052;-80
2022/02/27 02:30:55;;;;;;;23.63;10.02;;;;;;;;;;4988531;28;20065;-80
2022/02/27 02:33:33;;;;;;;24.02;10.20;;;;;;;;;;4988331;28;20058;-80
2022/02/27 02:35:59;;;;;;;19.45;10.48;;;;;;;;;;4979284;28;20695;-77
2022/02/27 02:38:26;;;;;;;23.65;10.50;;;;;;;;;;5038263;28;20504;-77
2022/02/27 02:40:52;;;;;;;25.05;11.43;;;;;;;;;;5004963;28;20044;-77
2022/02/27 02:43:17;;;;;;;21.15;10.18;;;;;;;;;;5037878;28;20050;-77
2022/02/27 02:45:43;;;;;;;21.58;10.52;;;;;;;;;;5005713;28;20049;-80
2022/02/27 02:48:09;;;;;;;18.15;10.10;;;;;;;;;;5023602;28;20462;-80
2022/02/27 02:50:35;;;;;;;21.15;10.82;;;;;;;;;;5022994;28;20033;-80
2022/02/27 02:53:00;;;;;;;24.55;10.68;;;;;;;;;;5024048;28;20045;-80
2022/02/27 02:55:26;;;;;;;25.73;11.45;;;;;;;;;;5005471;28;20034;-80
2022/02/27 02:57:53;;;;;;;23.05;10.50;;;;;;;;;;5007498;28;20171;-80
2022/02/27 03:00:18;;;;;;;23.60;10.55;;;;;;;;;;5022011;28;20045;-79
2022/02/27 03:02:44;;;;;;;20.10;10.70;;;;;;;;;;4990892;28;20053;-80
2022/02/27 03:05:10;;;;;;;24.00;10.57;;;;;;;;;;5007294;28;20061;-80
2022/02/27 03:07:37;;;;;;;22.95;10.82;;;;;;;;;;4990514;28;20052;-80
2022/02/27 03:10:04;;;;;;;20.10;10.00;;;;;;;;;;5005872;28;20038;-80
2022/02/27 03:12:30;;;;;;;24.02;10.52;;;;;;;;;;4987862;28;20045;-79
2022/02/27 03:14:56;;;;;;;21.23;9.73;;;;;;;;;;5006602;28;20038;-79
2022/02/27 03:17:22;;;;;;;23.35;10.50;;;;;;;;;;5004352;28;20049;-79
2022/02/27 03:19:47;;;;;;;18.23;9.95;;;;;;;;;;4989985;28;20726;-80
2022/02/27 03:22:13;;;;;;;24.10;11.02;;;;;;;;;;5036819;28;20507;-80
2022/02/27 03:24:39;;;;;;;19.25;9.80;;;;;;;;;;5007328;28;20576;-80
2022/02/27 03:27:05;;;;;;;20.63;10.10;;;;;;;;;;5006678;28;20123;-79
2022/02/27 03:29:31;;;;;;;23.75;11.55;;;;;;;;;;5022758;28;20510;-80
2022/02/27 03:31:56;;;;;;;29.15;11.20;;;;;;;;;;4990323;28;20041;-79
2022/02/27 03:34:22;;;;;;;22.83;10.40;;;;;;;;;;4999298;28;20531;-79
2022/02/27 03:36:48;;;;;;;21.70;10.85;;;;;;;;;;5022338;28;20190;-79
2022/02/27 03:39:14;;;;;;;22.00;11.25;;;;;;;;;;5002761;28;20042;-79
2022/02/27 03:41:39;;;;;;;20.85;9.65;;;;;;;;;;5037156;28;20052;-79
2022/02/27 03:44:05;;;;;;;25.42;10.23;;;;;;;;;;5020440;28;20509;-79
2022/02/27 03:46:34;;;;;;;26.33;11.15;;;;;;;;;;5005991;28;20407;-79
2022/02/27 03:49:03;;;;;;;29.40;11.38;;;;;;;;;;4989329;28;20042;-79
2022/02/27 03:51:29;;;;;;;21.73;11.27;;;;;;;;;;4985313;28;20043;-78
2022/02/27 03:53:55;;;;;;;24.70;12.00;;;;;;;;;;4974008;28;20432;-79
2022/02/27 03:56:20;;;;;;;25.23;10.32;;;;;;;;;;5008379;28;20129;-78
2022/02/27 03:58:46;;;;;;;20.45;11.13;;;;;;;;;;4989007;28;20050;-79
2022/02/27 04:01:12;;;;;;;23.15;11.02;;;;;;;;;;4985199;28;20733;-78
2022/02/27 04:03:37;;;;;;;24.88;11.48;;;;;;;;;;4993898;28;20510;-79
2022/02/27 04:06:03;;;;;;;20.98;10.50;;;;;;;;;;5002620;28;20129;-79
2022/02/27 04:08:29;;;;;;;26.70;11.20;;;;;;;;;;5003394;28;20570;-79
2022/02/27 04:10:55;;;;;;;20.98;10.68;;;;;;;;;;5001206;28;20664;-79
2022/02/27 04:13:20;;;;;;;18.92;10.30;;;;;;;;;;4992079;28;20065;-79
2022/02/27 04:15:46;;;;;;;19.40;9.95;;;;;;;;;;4989049;28;20143;-79
2022/02/27 04:18:12;;;;;;;26.65;10.75;;;;;;;;;;4993078;28;20041;-78
2022/02/27 04:20:38;;;;;;;24.95;11.32;;;;;;;;;;5019092;28;20414;-79
2022/02/27 04:23:03;;;;;;;21.60;10.65;;;;;;;;;;4999589;28;20561;-79
2022/02/27 04:25:29;;;;;;;24.67;10.43;;;;;;;;;;4989160;28;20038;-78
2022/02/27 04:27:56;;;;;;;19.70;10.15;;;;;;;;;;5001390;28;20038;-79
2022/02/27 04:30:22;;;;;;;24.42;11.77;;;;;;;;;;5005154;28;20092;-78
2022/02/27 04:32:48;;;;;;;25.15;11.32;;;;;;;;;;4988495;28;20042;-78
2022/02/27 04:35:14;;;;;;;18.85;9.85;;;;;;;;;;5001776;28;20452;-78
2022/02/27 04:37:40;;;;;;;17.83;10.38;;;;;;;;;;5020552;28;20042;-78
2022/02/27 04:40:06;;;;;;;21.95;11.02;;;;;;;;;;5000998;28;20421;-79
2022/02/27 04:42:32;;;;;;;21.05;10.15;;;;;;;;;;5004855;28;20314;-79
2022/02/27 04:44:58;;;;;;;21.77;10.75;;;;;;;;;;5002988;28;20048;-79
2022/02/27 04:47:24;;;;;;;24.83;9.68;;;;;;;;;;4997166;28;20042;-78
2022/02/27 04:49:51;;;;;;;22.65;10.07;;;;;;;;;;5013437;28;20659;-78
2022/02/27 04:52:16;;;;;;;22.48;11.20;;;;;;;;;;5033812;28;20099;-78
2022/02/27 04:54:43;;;;;;;23.70;10.20;;;;;;;;;;4987604;28;20517;-79
2022/02/27 04:57:09;;;;;;;22.65;10.57;;;;;;;;;;4987135;28;20034;-79
2022/02/27 04:59:35;;;;;;;20.85;11.23;;;;;;;;;;5000258;28;20088;-79
2022/02/27 05:02:00;;;;;;;21.83;10.27;;;;;;;;;;5037764;28;20042;-79
2022/02/27 05:04:26;;;;;;;22.83;10.90;;;;;;;;;;5006062;28;20057;-78
2022/02/27 05:06:52;;;;;;;21.67;10.73;;;;;;;;;;5005408;28;20042;-79
2022/02/27 05:09:19;;;;;;;21.20;11.45;;;;;;;;;;5001570;28;20254;-79
2022/02/27 05:11:46;;;;;;;22.52;10.55;;;;;;;;;;5004624;28;20126;-79
2022/02/27 05:14:13;;;;;;;18.13;10.85;;;;;;;;;;5004341;28;20040;-78
2022/02/27 05:16:39;;;;;;;22.30;10.13;;;;;;;;;;5035965;28;20046;-78
2022/02/27 05:19:05;;;;;;;24.35;11.52;;;;;;;;;;4997914;28;20048;-78
2022/02/27 05:21:31;;;;;;;25.00;11.25;;;;;;;;;;5019344;28;20145;-78
2022/02/27 05:23:56;;;;;;;20.83;10.48;;;;;;;;;;5003503;28;20045;-78
2022/02/27 05:26:22;;;;;;;24.45;12.07;;;;;;;;;;5003683;28;20573;-76
2022/02/27 05:28:48;;;;;;;24.92;12.68;;;;;;;;;;4984938;28;20126;-76
2022/02/27 05:31:14;;;;;;;23.15;10.70;;;;;;;;;;4997163;28;20062;-76
2022/02/27 05:33:40;;;;;;;23.35;11.13;;;;;;;;;;5012803;28;20049;-78
2022/02/27 05:36:06;;;;;;;21.08;11.88;;;;;;;;;;4987545;28;20042;-78
2022/02/27 05:38:32;;;;;;;22.83;10.98;;;;;;;;;;4988195;28;20042;-78
2022/02/27 05:40:57;;;;;;;28.33;12.35;;;;;;;;;;4996809;28;20108;-78
2022/02/27 05:43:23;;;;;;;26.35;11.70;;;;;;;;;;5035748;28;26301;-78
2022/02/27 05:45:49;;;;;;;26.98;13.07;;;;;;;;;;5005650;28;20073;-78
2022/02/27 05:48:15;;;;;;;25.63;12.15;;;;;;;;;;5004836;28;20132;-78
2022/02/27 05:50:41;;;;;;;24.05;11.98;;;;;;;;;;5037564;28;20040;-79
2022/02/27 05:53:06;;;;;;;28.50;12.75;;;;;;;;;;5007429;28;20144;-78
2022/02/27 05:55:32;;;;;;;28.08;12.73;;;;;;;;;;5007685;28;20078;-79
2022/02/27 05:57:58;;;;;;;27.02;12.15;;;;;;;;;;4991355;28;20490;-79
2022/02/27 06:00:24;;;;;;;26.30;13.02;;;;;;;;;;5023883;28;20066;-78
2022/02/27 06:02:49;;;;;;;26.42;13.07;;;;;;;;;;5007450;28;20446;-78
2022/02/27 06:05:15;;;;;;;24.02;12.85;;;;;;;;;;5008720;28;20072;-78
2022/02/27 06:07:41;;;;;;;32.67;13.57;;;;;;;;;;5008433;28;20350;-78
2022/02/27 06:10:07;;;;;;;28.73;13.02;;;;;;;;;;5002515;28;20447;-79
2022/02/27 06:12:33;;;;;;;26.40;13.88;;;;;;;;;;5003412;28;20120;-78
2022/02/27 06:14:59;;;;;;;25.05;13.88;;;;;;;;;;5003698;28;20034;-79
2022/02/27 06:17:24;;;;;;;25.25;14.05;;;;;;;;;;5038922;28;20447;-79
2022/02/27 06:19:50;;;;;;;27.67;13.73;;;;;;;;;;5008571;28;20060;-79
2022/02/27 06:22:16;;;;;;;34.47;13.55;;;;;;;;;;5019283;28;20461;-79
2022/02/27 06:24:42;;;;;;;28.45;14.20;;;;;;;;;;5005343;28;20394;-79
2022/02/27 06:27:07;;;;;;;26.42;13.05;;;;;;;;;;5039717;28;20124;-78
2022/02/27 06:29:33;;;;;;;31.83;14.25;;;;;;;;;;5009516;28;20062;-78
2022/02/27 06:31:59;;;;;;;24.10;13.80;;;;;;;;;;5002031;28;20073;-78
2022/02/27 06:34:24;;;;;;;31.15;13.80;;;;;;;;;;5011274;28;20116;-79
2022/02/27 06:36:50;;;;;;;31.55;14.15;;;;;;;;;;5008591;28;20061;-78
2022/02/27 06:39:16;;;;;;;25.88;13.05;;;;;;;;;;5023396;28;20145;-78
2022/02/27 06:41:42;;;;;;;25.98;13.00;;;;;;;;;;5007885;28;20128;-78
2022/02/27 06:44:07;;;;;;;27.02;13.18;;;;;;;;;;5000583;28;20092;-78
2022/02/27 06:46:33;;;;;;;28.08;14.02;;;;;;;;;;5040952;28;20037;-78
2022/02/27 06:48:59;;;;;;;34.25;15.27;;;;;;;;;;5006350;28;20393;-78
2022/02/27 06:51:25;;;;;;;27.70;13.65;;;;;;;;;;5023588;28;20034;-79
2022/02/27 06:53:51;;;;;;;31.08;14.02;;;;;;;;;;5007518;28;20487;-78
2022/02/27 06:56:17;;;;;;;33.88;13.18;;;;;;;;;;4991034;28;20042;-78
2022/02/27 06:58:42;;;;;;;33.08;14.18;;;;;;;;;;4990786;28;20030;-79
2022/02/27 07:01:09;;;;;;;29.95;13.27;;;;;;;;;;5001352;28;20064;-80
2022/02/27 07:03:35;;;;;;;25.08;12.52;;;;;;;;;;5006680;28;20185;-80
2022/02/27 07:06:00;;;;;;;26.73;12.43;;;;;;;;;;5024345;28;20042;-80
2022/02/27 07:08:27;;;;;;;27.15;13.07;;;;;;;;;;5006720;28;20396;-80
2022/02/27 07:10:54;;;;;;;31.00;13.50;;;;;;;;;;4989135;28;20049;-80
2022/02/27 07:13:20;;;;;;;28.35;13.23;;;;;;;;;;5007375;28;20456;-80
2022/02/27 07:15:46;;;;;;;22.77;12.18;;;;;;;;;;5005772;28;20126;-80
2022/02/27 07:18:11;;;;;;;23.58;12.18;;;;;;;;;;5022094;28;20096;-80
2022/02/27 07:20:37;;;;;;;22.63;12.15;;;;;;;;;;5022834;28;20140;-80
2022/02/27 07:23:03;;;;;;;23.05;12.05;;;;;;;;;;5013109;28;20438;-80
2022/02/27 07:25:28;;;;;;;18.52;11.70;;;;;;;;;;5022322;28;20791;-80
2022/02/27 07:27:54;;;;;;;25.83;13.27;;;;;;;;;;4997583;28;20870;-80
2022/02/27 07:30:20;;;;;;;21.75;11.40;;;;;;;;;;4989083;28;20042;-80
2022/02/27 07:32:46;;;;;;;26.48;13.18;;;;;;;;;;4988403;28;20514;-80
2022/02/27 07:35:12;;;;;;;23.77;11.43;;;;;;;;;;4988769;28;20124;-80
2022/02/27 07:37:37;;;;;;;24.30;12.00;;;;;;;;;;5004284;28;20060;-80
2022/02/27 07:40:05;;;;;;;22.45;12.57;;;;;;;;;;5006315;28;20036;-80
2022/02/27 07:42:31;;;;;;;30.27;12.25;;;;;;;;;;4989485;28;20042;-80
2022/02/27 07:44:56;;;;;;;26.55;12.80;;;;;;;;;;4968254;28;20038;-80
2022/02/27 07:47:23;;;;;;;24.65;13.02;;;;;;;;;;4986403;28;20126;-80
2022/02/27 07:49:49;;;;;;;21.48;12.55;;;;;;;;;;4966409;28;20069;-80
2022/02/27 07:52:14;;;;;;;28.15;13.27;;;;;;;;;;5017253;28;20376;-80
2022/02/27 07:54:41;;;;;;;27.17;13.23;;;;;;;;;;4970106;28;20041;-80
2022/02/27 07:57:07;;;;;;;26.02;13.38;;;;;;;;;;5004322;28;20116;-80
2022/02/27 07:59:33;;;;;;;21.20;12.77;;;;;;;;;;5004443;28;20057;-79
2022/02/27 08:01:58;;;;;;;25.45;14.15;;;;;;;;;;4987356;28;20125;-79
2022/02/27 08:04:24;;;;;;;26.40;13.90;;;;;;;;;;5007428;28;20041;-79
2022/02/27 08:06:50;;;;;;;34.15;14.30;;;;;;;;;;5005485;28;20073;-80
2022/02/27 08:09:16;;;;;;;25.38;13.80;;;;;;;;;;4987025;28;20082;-80
2022/02/27 08:11:41;;;;;;;29.75;14.30;;;;;;;;;;4987612;28;20103;-80
2022/02/27 08:14:07;;;;;;;25.55;14.45;;;;;;;;;;5003797;28;20069;-80
2022/02/27 08:16:33;;;;;;;28.23;14.88;;;;;;;;;;5006586;28;20537;-80
2022/02/27 08:18:59;;;;;;;27.40;13.48;;;;;;;;;;4988268;28;20133;-80
2022/02/27 08:21:25;;;;;;;23.02;13.77;;;;;;;;;;5019866;28;21071;-80
2022/02/27 08:23:51;;;;;;;27.17;14.02;;;;;;;;;;5004649;28;20108;-80
2022/02/27 08:26:17;;;;;;;50.05;15.20;;;;;;;;;;5021118;28;20384;-80
2022/02/27 08:28:42;;;;;;;31.55;14.43;;;;;;;;;;4988553;28;20092;-80
2022/02/27 08:31:08;;;;;;;26.50;13.68;;;;;;;;;;4998046;28;20395;-80
2022/02/27 08:33:34;;;;;;;28.52;14.88;;;;;;;;;;4999932;28;20101;-80
2022/02/27 08:35:59;;;;;;;33.22;14.93;;;;;;;;;;4988346;28;20120;-80
2022/02/27 08:38:26;;;;;;;21.13;13.70;;;;;;;;;;4992703;28;20048;-79
2022/02/27 08:40:52;;;;;;;25.30;13.32;;;;;;;;;;4986411;28;20491;-79
2022/02/27 08:43:18;;;;;;;36.05;14.77;;;;;;;;;;4984012;28;20416;-79
2022/02/27 08:45:44;;;;;;;53.50;15.60;;;;;;;;;;4987138;28;20062;-79
2022/02/27 08:48:09;;;;;;;23.48;14.57;;;;;;;;;;5003807;28;20489;-79
2022/02/27 08:50:35;;;;;;;29.48;15.25;;;;;;;;;;5003272;28;20125;-79
2022/02/27 08:53:01;;;;;;;24.10;14.35;;;;;;;;;;5000203;28;20042;-79
2022/02/27 08:55:27;;;;;;;26.27;14.52;;;;;;;;;;4996744;28;20147;-79
2022/02/27 08:57:53;;;;;;;27.77;14.90;;;;;;;;;;5005497;28;20049;-79
2022/02/27 09:00:19;;;;;;;25.73;14.45;;;;;;;;;;4987337;28;20041;-79
2022/02/27 09:02:46;;;;;;;32.20;14.88;;;;;;;;;;4986413;28;20555;-79
2022/02/27 09:05:12;;;;;;;34.88;15.07;;;;;;;;;;5002939;28;20104;-79
2022/02/27 09:07:38;;;;;;;24.63;15.25;;;;;;;;;;4989311;28;20458;-79
2022/02/27 09:10:05;;;;;;;28.00;15.30;;;;;;;;;;5002837;28;20034;-79
2022/02/27 09:12:31;;;;;;;24.20;15.07;;;;;;;;;;5017988;28;20116;-80
2022/02/27 09:14:57;;;;;;;26.48;15.10;;;;;;;;;;4997480;28;20042;-80
2022/02/27 09:17:23;;;;;;;25.40;15.32;;;;;;;;;;4984384;28;20618;-80
2022/02/27 09:19:49;;;;;;;26.25;14.75;;;;;;;;;;4999788;28;20038;-80
2022/02/27 09:22:15;;;;;;;27.08;15.90;;;;;;;;;;4991325;28;20383;-81
2022/02/27 09:24:41;;;;;;;34.25;15.35;;;;;;;;;;4989043;28;20129;-80
2022/02/27 09:27:07;;;;;;;51.72;16.92;;;;;;;;;;5001948;28;20061;-80
2022/02/27 09:29:33;;;;;;;24.48;15.93;;;;;;;;;;4989805;28;20038;-81
2022/02/27 09:31:59;;;;;;;23.85;16.08;;;;;;;;;;4988203;28;20041;-81
2022/02/27 09:34:26;;;;;;;26.10;16.17;;;;;;;;;;4993729;28;20132;-81
2022/02/27 09:36:52;;;;;;;26.30;15.85;;;;;;;;;;5022604;28;20430;-81
2022/02/27 09:39:18;;;;;;;27.10;17.02;;;;;;;;;;4991356;28;20593;-81
2022/02/27 09:41:45;;;;;;;25.27;16.52;;;;;;;;;;4992212;28;20504;-81
2022/02/27 09:44:12;;;;;;;28.98;16.88;;;;;;;;;;4992756;28;20462;-81
2022/02/27 09:46:38;;;;;;;45.20;16.25;;;;;;;;;;5005593;28;20056;-81
2022/02/27 09:49:07;;;;;;;25.85;16.55;;;;;;;;;;5026278;28;20050;-81
2022/02/27 09:51:33;;;;;;;27.55;16.65;;;;;;;;;;4994631;28;20038;-81
2022/02/27 09:54:00;;;;;;;32.40;17.00;;;;;;;;;;4993073;28;20100;-81
2022/02/27 09:56:25;;;;;;;27.25;16.58;;;;;;;;;;5005024;28;20406;-80
2022/02/27 09:58:51;;;;;;;22.80;15.25;;;;;;;;;;5008837;28;20057;-80
2022/02/27 10:01:18;;;;;;;87.80;19.10;;;;;;;;;;5035008;28;20114;-81
2022/02/27 10:03:45;;;;;;;28.30;17.42;;;;;;;;;;4991962;28;20045;-81
2022/02/27 10:06:13;;;;;;;25.63;16.98;;;;;;;;;;4992453;28;21026;-81
2022/02/27 10:08:44;;;;;;;25.98;16.70;;;;;;;;;;5020846;28;20541;-81
2022/02/27 10:11:21;;;;;;;23.50;16.98;;;;;;;;;;4990871;28;20044;-80
2022/02/27 10:13:51;;;;;;;29.67;17.13;;;;;;;;;;5003850;28;20566;-80
2022/02/27 10:16:20;;;;;;;26.83;17.05;;;;;;;;;;4991885;28;20508;-81
2022/02/27 10:18:53;;;;;;;26.27;16.75;;;;;;;;;;5006646;28;20583;-80
2022/02/27 10:21:26;;;;;;;27.63;17.58;;;;;;;;;;4990512;28;20072;-80
2022/02/27 10:24:06;;;;;;;24.88;16.70;;;;;;;;;;5006084;28;20061;-80
2022/02/27 10:26:33;;;;;;;30.05;17.55;;;;;;;;;;5038994;28;20042;-80
2022/02/27 10:29:14;;;;;;;42.20;17.98;;;;;;;;;;4993388;28;20064;-80
2022/02/27 10:32:01;;;;;;;29.60;16.73;;;;;;;;;;4993000;28;20399;-80
2022/02/27 10:34:37;;;;;;;28.92;17.13;;;;;;;;;;5003452;28;20052;-80
2022/02/27 10:37:08;;;;;;;28.30;17.95;;;;;;;;;;5005290;28;20030;-80
2022/02/27 10:39:50;;;;;;;25.77;17.25;;;;;;;;;;5005052;28;20038;-80
2022/02/27 10:42:19;;;;;;;28.20;16.80;;;;;;;;;;5004848;28;20922;-80
2022/02/27 10:44:54;;;;;;;30.30;17.55;;;;;;;;;;5006960;28;20045;-80
2022/02/27 10:47:26;;;;;;;29.92;17.55;;;;;;;;;;4990311;28;20061;-81
2022/02/27 10:49:54;;;;;;;26.67;17.25;;;;;;;;;;4991424;28;20092;-80
2022/02/27 11:13:09;;;;;;;34.67;18.98;;;;;;;;;;5449002;22;20045;-80
2022/02/27 11:15:35;;;;;;;32.80;20.83;;;;;;;;;;4988677;28;20040;-79
2022/02/27 11:18:01;;;;;;;38.67;20.67;;;;;;;;;;5004861;28;20046;-80
2022/02/27 11:20:27;;;;;;;31.95;18.75;;;;;;;;;;4990951;28;20587;-79
2022/02/27 11:22:54;;;;;;;31.77;19.42;;;;;;;;;;4987360;28;20164;-79
2022/02/27 11:25:22;;;;;;;36.85;21.33;;;;;;;;;;4988731;28;20141;-78
2022/02/27 11:27:51;;;;;;;32.42;19.90;;;;;;;;;;4985730;28;20653;-79
2022/02/27 11:30:22;;;;;;;32.35;20.83;;;;;;;;;;4983113;28;20096;-79
2022/02/27 11:32:54;;;;;;;32.33;21.08;;;;;;;;;;5003708;28;20401;-78
2022/02/27 11:35:43;;;;;;;33.65;20.92;;;;;;;;;;4992424;28;20052;-79
2022/02/27 11:38:11;;;;;;;33.05;21.83;;;;;;;;;;4988696;28;20100;-79
2022/02/27 11:40:46;;;;;;;31.98;21.23;;;;;;;;;;4984399;28;20045;-78
2022/02/27 11:43:16;;;;;;;;;;;;;;;;;;5006799;28;20040;-78
2022/02/27 11:45:44;;;;;;;31.05;19.35;;;;;;;;;;4984800;28;19975;-78
2022/02/27 11:48:11;;;;;;;30.60;18.65;;;;;;;;;;5018089;28;20042;-79
2022/02/27 11:50:40;;;;;;;28.35;18.70;;;;;;;;;;4991250;28;20091;-79
2022/02/27 11:53:23;;;;;;;34.42;19.38;;;;;;;;;;4988592;28;20109;-79
2022/02/27 11:55:51;;;;;;;30.60;19.73;;;;;;;;;;4986967;28;20033;-79
2022/02/27 11:58:21;;;;;;;36.58;20.45;;;;;;;;;;4981556;28;20033;-79
2022/02/27 12:00:48;;;;;;;35.22;20.90;;;;;;;;;;4997434;28;20044;-80
2022/02/27 12:03:31;;;;;;;29.15;19.67;;;;;;;;;;4985150;28;20048;-80
2022/02/27 12:06:03;;;;;;;31.60;18.77;;;;;;;;;;5004886;28;20560;-79
2022/02/27 12:08:42;;;;;;;31.50;19.40;;;;;;;;;;5000395;28;20044;-78
2022/02/27 12:11:33;;;;;;;30.90;20.27;;;;;;;;;;5003461;28;20493;-78
2022/02/27 12:14:03;;;;;;;32.17;19.90;;;;;;;;;;4980241;28;20038;-78
2022/02/27 12:16:40;;;;;;;32.03;18.98;;;;;;;;;;4980075;28;20121;-78
2022/02/27 12:19:20;;;;;;;25.73;17.00;;;;;;;;;;4981705;28;20449;-78
2022/02/27 12:21:46;;;;;;;25.98;16.58;;;;;;;;;;4986313;28;20425;-80
2022/02/27 12:24:20;;;;;;;29.50;18.25;;;;;;;;;;4972462;28;20037;-79
2022/02/27 12:26:59;;;;;;;27.67;17.45;;;;;;;;;;4991019;28;20046;-78
2022/02/27 12:29:37;;;;;;;29.02;18.60;;;;;;;;;;4968130;28;20044;-79
2022/02/27 12:52:43;;;;;;;27.98;18.73;;;;;;;;;;4991760;28;20404;-79
2022/02/27 12:55:14;;;;;;;29.48;16.95;;;;;;;;;;4989330;28;20047;-78
2022/02/27 12:57:44;;;;;;;23.48;16.02;;;;;;;;;;4991356;28;20031;-79
2022/02/27 13:00:11;;;;;;;27.58;17.05;;;;;;;;;;4978466;28;20310;-79
2022/02/27 13:02:37;;;;;;;23.80;16.35;;;;;;;;;;4963100;28;20346;-79
2022/02/27 13:05:06;;;;;;;24.95;16.95;;;;;;;;;;4984048;28;20148;-79
2022/02/27 13:07:31;;;;;;;29.60;18.45;;;;;;;;;;4977962;28;20096;-79
2022/02/27 13:09:57;;;;;;;27.25;17.58;;;;;;;;;;4958387;28;20070;-79
2022/02/27 13:12:28;;;;;;;24.50;17.33;;;;;;;;;;4973013;28;20057;-79
2022/02/27 13:14:55;;;;;;;27.77;18.52;;;;;;;;;;4954352;28;20058;-80
2022/02/27 13:17:24;;;;;;;31.58;21.48;;;;;;;;;;4967078;28;20513;-80
2022/02/27 13:19:51;;;;;;;29.85;18.63;;;;;;;;;;4958142;28;20054;-79
2022/02/27 13:22:31;;;;;;;24.88;16.05;;;;;;;;;;4951979;28;20423;-79
2022/02/27 13:24:59;;;;;;;23.33;16.00;;;;;;;;;;4943375;28;20039;-80
2022/02/27 13:27:27;;;;;;;24.88;16.77;;;;;;;;;;4965400;28;20039;-80
2022/02/27 13:29:58;;;;;;;24.48;16.70;;;;;;;;;;4960128;28;20532;-80
2022/02/27 13:32:24;;;;;;;23.08;16.73;;;;;;;;;;4975205;28;20046;-79
2022/02/27 13:34:54;;;;;;;24.35;16.48;;;;;;;;;;4962093;28;20392;-80
2022/02/27 13:37:21;;;;;;;22.42;16.20;;;;;;;;;;4980897;28;20094;-80
2022/02/27 13:39:54;;;;;;;23.55;16.75;;;;;;;;;;4959880;28;20035;-79
2022/02/27 13:42:20;;;;;;;25.08;16.60;;;;;;;;;;4966193;28;20047;-79
2022/02/27 13:44:46;;;;;;;25.30;16.10;;;;;;;;;;4979940;28;20318;-80
2022/02/27 13:47:12;;;;;;;24.08;15.82;;;;;;;;;;4980180;28;20073;-80
2022/02/27 13:49:37;;;;;;;22.60;15.48;;;;;;;;;;4959865;28;20490;-79
2022/02/27 13:52:04;;;;;;;22.20;14.82;;;;;;;;;;4975351;28;20046;-80
2022/02/27 13:54:30;;;;;;;24.08;16.48;;;;;;;;;;4984533;28;20069;-81
2022/02/27 13:56:59;;;;;;;24.90;16.50;;;;;;;;;;4977214;28;20125;-79
2022/02/27 13:59:25;;;;;;;22.92;15.85;;;;;;;;;;4979623;28;20499;-79
2022/02/27 14:01:59;;;;;;;24.75;16.23;;;;;;;;;;4973951;28;20313;-80
2022/02/27 14:04:25;;;;;;;27.42;16.60;;;;;;;;;;4973697;28;20101;-79
2022/02/27 14:06:52;;;;;;;26.77;17.08;;;;;;;;;;4956389;28;20443;-79
2022/02/27 14:09:17;;;;;;;27.25;16.83;;;;;;;;;;4965904;28;20046;-79
2022/02/27 14:11:43;;;;;;;30.00;17.85;;;;;;;;;;4956250;28;20656;-79
2022/02/27 14:14:11;;;;;;;27.48;18.38;;;;;;;;;;4977204;28;20110;-79
2022/02/27 14:16:43;;;;;;;29.10;17.70;;;;;;;;;;4953390;28;20045;-79
2022/02/27 14:19:11;;;;;;;28.23;17.13;;;;;;;;;;4952977;28;20042;-79
2022/02/27 14:21:40;;;;;;;31.88;18.70;;;;;;;;;;4977915;28;20109;-78
2022/02/27 14:24:08;;;;;;;30.30;19.15;;;;;;;;;;4947258;28;20034;-79
2022/02/27 14:26:36;;;;;;;27.05;17.58;;;;;;;;;;4954786;28;20039;-79
2022/02/27 14:29:06;;;;;;;26.63;16.98;;;;;;;;;;4967164;28;20652;-79
2022/02/27 14:31:34;;;;;;;31.02;17.95;;;;;;;;;;4981906;28;20068;-79
2022/02/27 14:34:02;;;;;;;25.30;16.38;;;;;;;;;;4971583;28;20067;-79
2022/02/27 14:36:28;;;;;;;27.60;16.55;;;;;;;;;;4957774;28;20043;-79
2022/02/27 14:38:56;;;;;;;27.33;17.13;;;;;;;;;;4981264;28;20384;-79
2022/02/27 14:41:23;;;;;;;26.77;17.15;;;;;;;;;;4956056;28;20051;-79
2022/02/27 14:43:48;;;;;;;34.75;22.92;;;;;;;;;;4979687;28;20053;-79
2022/02/27 14:46:14;;;;;;;31.48;18.42;;;;;;;;;;4949070;28;20575;-79
2022/02/27 14:48:40;;;;;;;29.35;17.38;;;;;;;;;;4951052;28;20129;-79
2022/02/27 14:51:09;;;;;;;25.88;17.38;;;;;;;;;;4957785;28;20161;-78
2022/02/27 14:53:34;;;;;;;27.13;17.90;;;;;;;;;;4965996;28;20044;-79
2022/02/27 14:56:02;;;;;;;28.88;18.42;;;;;;;;;;4970851;28;20745;-78
2022/02/27 14:58:29;;;;;;;30.77;18.85;;;;;;;;;;4984250;28;20421;-79